createdAt,value
2023-03-27T00:00:46.311Z,3.20
2023-03-27T00:03:10.994Z,3.83
2023-03-27T00:05:33.778Z,4.18
2023-03-27T00:07:56.376Z,3.53
2023-03-27T00:10:19.265Z,5.15
2023-03-27T00:12:44.237Z,2.63
2023-03-27T00:15:07.961Z,3.90
2023-03-27T00:17:30.798Z,3.65
2023-03-27T00:19:54.106Z,4.45
2023-03-27T00:22:17.168Z,3.83
2023-03-27T00:24:39.806Z,5.40
2023-03-27T00:27:02.867Z,5.30
2023-03-27T00:29:25.682Z,3.92
2023-03-27T00:31:48.270Z,5.20
2023-03-27T00:34:11.552Z,4.32
2023-03-27T00:36:34.250Z,3.78
2023-03-27T00:38:57.409Z,3.63
2023-03-27T00:41:21.593Z,4.57
2023-03-27T00:43:44.283Z,6.90
2023-03-27T00:46:31.745Z,2.97
2023-03-27T00:48:57.254Z,3.63
2023-03-27T00:51:24.527Z,5.03
2023-03-27T00:53:48.948Z,5.40
2023-03-27T00:56:11.594Z,3.92
2023-03-27T00:58:47.342Z,4.25
2023-03-27T01:01:12.314Z,5.28
2023-03-27T01:03:36.551Z,4.30
2023-03-27T01:06:02.114Z,5.10
2023-03-27T01:08:27.368Z,4.35
2023-03-27T01:11:08.849Z,3.05
2023-03-27T01:13:49.799Z,3.60
2023-03-27T01:16:26.683Z,4.60
2023-03-27T01:18:53.827Z,2.55
2023-03-27T01:21:35.395Z,3.28
2023-03-27T01:24:09.321Z,2.70
2023-03-27T01:26:38.264Z,3.53
2023-03-27T01:29:33.142Z,3.43
2023-03-27T01:32:00.302Z,4.07
2023-03-27T01:35:01.831Z,2.78
2023-03-27T01:37:47.922Z,3.40
2023-03-27T01:40:18.747Z,2.60
2023-03-27T01:43:13.446Z,2.80
2023-03-27T01:46:03.140Z,3.80
2023-03-27T01:48:33.074Z,2.63
2023-03-27T01:51:03.565Z,2.63
2023-03-27T01:53:32.515Z,3.47
2023-03-27T01:56:03.288Z,2.67
2023-03-27T01:58:33.249Z,2.17
2023-03-27T02:01:01.499Z,3.47
2023-03-27T02:03:31.726Z,2.55
2023-03-27T02:05:58.696Z,2.35
2023-03-27T02:08:34.541Z,2.13
2023-03-27T02:11:15.999Z,4.57
2023-03-27T02:13:52.113Z,3.17
2023-03-27T02:16:21.173Z,3.13
2023-03-27T02:18:51.670Z,4.40
2023-03-27T02:21:15.451Z,2.13
2023-03-27T02:23:40.650Z,2.40
2023-03-27T02:26:03.745Z,3.00
2023-03-27T02:28:34.697Z,2.13
2023-03-27T02:31:36.505Z,2.80
2023-03-27T02:34:19.228Z,2.63
2023-03-27T02:37:09.426Z,2.03
2023-03-27T02:40:02.197Z,4.32
2023-03-27T02:42:59.752Z,3.40
2023-03-27T02:45:35.042Z,3.20
2023-03-27T02:48:10.551Z,2.80
2023-03-27T02:51:09.169Z,4.20
2023-03-27T02:53:38.929Z,3.13
2023-03-27T02:56:03.625Z,3.40
2023-03-27T02:59:09.837Z,2.63
2023-03-27T03:01:39.278Z,4.43
2023-03-27T03:04:16.815Z,3.88
2023-03-27T03:06:56.203Z,4.72
2023-03-27T03:09:19.176Z,3.75
2023-03-27T03:11:51.515Z,4.03
2023-03-27T03:14:14.910Z,4.20
2023-03-27T03:16:37.573Z,4.43
2023-03-27T03:19:01.329Z,3.65
2023-03-27T03:21:24.491Z,4.38
2023-03-27T03:23:57.777Z,4.32
2023-03-27T03:26:22.365Z,5.63
2023-03-27T03:29:00.367Z,3.72
2023-03-27T03:31:27.806Z,4.80
2023-03-27T03:33:51.779Z,4.78
2023-03-27T03:36:15.049Z,4.72
2023-03-27T03:38:38.701Z,4.27
2023-03-27T03:41:09.034Z,5.45
2023-03-27T03:43:31.982Z,5.93
2023-03-27T03:45:56.130Z,6.63
2023-03-27T03:48:21.775Z,5.38
2023-03-27T03:50:46.359Z,5.73
2023-03-27T03:53:08.988Z,6.15
2023-03-27T03:55:32.447Z,7.22
2023-03-27T03:57:55.737Z,4.13
2023-03-27T04:00:22.966Z,6.13
2023-03-27T04:02:53.792Z,7.20
2023-03-27T04:05:17.208Z,6.47
2023-03-27T04:07:41.301Z,6.32
2023-03-27T04:10:27.820Z,6.15
2023-03-27T04:12:51.398Z,6.95
2023-03-27T04:15:37.535Z,7.47
2023-03-27T04:18:01.263Z,6.60
2023-03-27T04:20:27.510Z,5.55
2023-03-27T04:22:54.182Z,6.97
2023-03-27T04:25:17.984Z,6.57
2023-03-27T04:27:43.290Z,6.93
2023-03-27T04:30:23.457Z,5.95
2023-03-27T04:33:06.458Z,8.15
2023-03-27T04:36:06.441Z,7.95
2023-03-27T04:38:56.893Z,7.00
2023-03-27T04:41:21.366Z,6.50
2023-03-27T04:43:46.273Z,5.70
2023-03-27T04:46:09.453Z,5.22
2023-03-27T04:48:33.392Z,5.93
2023-03-27T04:51:08.383Z,6.57
2023-03-27T04:53:32.427Z,5.17
2023-03-27T04:55:57.356Z,5.78
2023-03-27T04:58:20.088Z,5.88
2023-03-27T05:00:43.897Z,8.52
2023-03-27T05:03:28.420Z,6.93
2023-03-27T05:06:14.032Z,7.27
2023-03-27T05:08:37.190Z,8.50
2023-03-27T05:11:00.129Z,6.78
2023-03-27T05:13:26.309Z,6.13
2023-03-27T05:15:49.128Z,7.85
2023-03-27T05:18:16.185Z,6.43
2023-03-27T05:20:39.249Z,7.00
2023-03-27T05:23:05.201Z,7.22
2023-03-27T05:25:28.884Z,7.57
2023-03-27T05:27:54.738Z,9.23
2023-03-27T05:30:23.891Z,6.50
2023-03-27T05:32:54.954Z,8.38
2023-03-27T05:35:25.165Z,5.60
2023-03-27T05:37:52.643Z,8.10
2023-03-27T05:40:36.006Z,6.97
2023-03-27T05:43:01.673Z,5.90
2023-03-27T05:45:27.022Z,7.88
2023-03-27T05:47:56.843Z,7.57
2023-03-27T05:50:24.638Z,10.35
2023-03-27T05:52:55.906Z,8.70
2023-03-27T05:55:27.437Z,8.70
2023-03-27T05:57:52.434Z,8.13
2023-03-27T06:00:16.685Z,12.85
2023-03-27T06:02:40.717Z,17.50
2023-03-27T06:05:04.762Z,18.02
2023-03-27T06:07:33.306Z,12.20
2023-03-27T06:10:03.330Z,12.48
2023-03-27T06:12:30.059Z,12.52
2023-03-27T06:15:00.105Z,14.43
2023-03-27T06:17:29.992Z,9.68
2023-03-27T06:19:58.137Z,10.00
2023-03-27T06:22:21.574Z,9.18
2023-03-27T06:24:45.059Z,8.07
2023-03-27T06:27:10.957Z,8.32
2023-03-27T06:29:37.447Z,8.95
2023-03-27T06:32:02.024Z,10.17
2023-03-27T06:34:29.459Z,8.43
2023-03-27T06:37:00.021Z,8.23
2023-03-27T06:39:23.825Z,10.73
2023-03-27T06:41:49.052Z,7.47
2023-03-27T06:44:31.046Z,11.87
2023-03-27T06:47:04.383Z,11.70
2023-03-27T06:49:53.229Z,10.10
2023-03-27T06:52:18.923Z,7.47
2023-03-27T06:54:41.944Z,7.78
2023-03-27T06:57:06.597Z,7.33
2023-03-27T06:59:44.263Z,7.07
2023-03-27T07:02:12.589Z,8.70
2023-03-27T07:05:04.211Z,9.13
2023-03-27T07:07:32.413Z,9.93
2023-03-27T07:09:55.402Z,12.20
2023-03-27T07:12:21.388Z,8.68
2023-03-27T07:14:44.656Z,9.00
2023-03-27T07:17:09.622Z,8.77
2023-03-27T07:19:51.913Z,7.75
2023-03-27T07:22:19.088Z,10.53
2023-03-27T07:24:41.860Z,12.15
2023-03-27T07:27:07.885Z,9.88
2023-03-27T07:29:31.759Z,7.85
2023-03-27T07:31:58.762Z,8.23
2023-03-27T07:34:34.072Z,6.70
2023-03-27T07:37:16.053Z,6.93
2023-03-27T07:39:59.484Z,7.53
2023-03-27T07:42:24.640Z,7.93
2023-03-27T07:44:59.179Z,7.15
2023-03-27T07:47:22.619Z,5.90
2023-03-27T07:49:45.470Z,5.63
2023-03-27T07:52:11.164Z,5.20
2023-03-27T07:54:52.585Z,5.55
2023-03-27T07:57:19.312Z,5.32
2023-03-27T07:59:52.902Z,4.57
2023-03-27T08:02:27.421Z,5.80
2023-03-27T08:04:52.148Z,8.07
2023-03-27T08:07:15.801Z,3.80
2023-03-27T08:09:39.641Z,4.80
2023-03-27T08:12:03.812Z,4.67
2023-03-27T08:14:27.817Z,6.00
2023-03-27T08:16:59.719Z,4.75
2023-03-27T08:19:34.628Z,4.22
2023-03-27T08:21:57.668Z,3.00
2023-03-27T08:24:21.004Z,4.10
2023-03-27T08:27:05.224Z,3.72
2023-03-27T08:29:32.890Z,3.90
2023-03-27T08:31:55.602Z,4.47
2023-03-27T08:34:18.572Z,4.15
2023-03-27T08:36:45.558Z,2.90
2023-03-27T08:39:10.238Z,4.78
2023-03-27T08:41:56.973Z,3.30
2023-03-27T08:44:54.984Z,6.03
2023-03-27T08:47:37.893Z,5.93
2023-03-27T08:50:38.734Z,4.30
2023-03-27T08:53:17.629Z,5.85
2023-03-27T08:55:43.406Z,4.88
2023-03-27T08:58:45.697Z,5.82
2023-03-27T09:01:45.701Z,5.68
2023-03-27T09:04:24.074Z,7.33
2023-03-27T09:07:01.532Z,6.72
2023-03-27T09:09:32.786Z,8.02
2023-03-27T09:12:30.260Z,7.78
2023-03-27T09:15:02.809Z,8.70
2023-03-27T09:18:00.993Z,9.97
2023-03-27T09:20:44.925Z,11.15
2023-03-27T09:23:34.693Z,12.02
2023-03-27T09:26:34.524Z,8.05
2023-03-27T09:29:04.062Z,9.95
2023-03-27T09:31:35.125Z,9.60
2023-03-27T09:34:05.984Z,10.15
2023-03-27T09:36:29.586Z,9.68
2023-03-27T09:39:04.124Z,7.95
2023-03-27T09:41:34.689Z,10.73
2023-03-27T09:44:13.088Z,9.17
2023-03-27T09:46:44.725Z,8.10
2023-03-27T09:49:17.552Z,6.65
2023-03-27T09:51:52.302Z,8.80
2023-03-27T09:54:49.440Z,8.45
2023-03-27T09:57:13.530Z,9.53
2023-03-27T09:59:41.111Z,10.18
2023-03-27T10:02:21.217Z,12.13
2023-03-27T10:05:00.113Z,12.77
2023-03-27T10:07:28.448Z,15.13
2023-03-27T10:10:20.310Z,16.53
2023-03-27T10:13:14.134Z,15.52
2023-03-27T10:15:47.121Z,15.88
2023-03-27T10:18:29.332Z,17.45
2023-03-27T10:21:07.613Z,19.48
2023-03-27T10:23:45.459Z,18.60
2023-03-27T10:26:25.578Z,20.48
2023-03-27T10:28:54.956Z,16.23
2023-03-27T10:31:38.083Z,17.15
2023-03-27T10:34:42.196Z,18.02
2023-03-27T10:37:36.207Z,15.53
2023-03-27T10:40:43.401Z,12.23
2023-03-27T10:43:42.711Z,13.98
2023-03-27T10:46:12.347Z,10.73
2023-03-27T10:49:00.294Z,10.80
2023-03-27T10:51:49.008Z,8.87
2023-03-27T10:54:51.378Z,9.45
2023-03-27T10:57:27.678Z,9.30
2023-03-27T11:00:21.395Z,7.88
2023-03-27T11:03:15.821Z,7.00
2023-03-27T11:05:46.634Z,8.30
2023-03-27T11:08:44.274Z,8.57
2023-03-27T11:11:17.850Z,8.73
2023-03-27T11:13:46.471Z,5.63
2023-03-27T11:16:29.872Z,4.43
2023-03-27T11:19:12.457Z,5.60
2023-03-27T11:22:22.002Z,11.65
2023-03-27T11:24:58.955Z,19.73
2023-03-27T11:27:40.036Z,22.65
2023-03-27T11:30:10.325Z,24.30
2023-03-27T11:33:24.417Z,23.07
2023-03-27T11:36:11.783Z,20.02
2023-03-27T11:38:46.623Z,21.23
2023-03-27T11:41:15.453Z,20.35
2023-03-27T11:43:40.900Z,23.88
2023-03-27T11:46:31.165Z,18.37
2023-03-27T11:49:27.240Z,20.52
2023-03-27T11:52:02.074Z,19.25
2023-03-27T11:54:33.472Z,21.20
2023-03-27T11:57:02.926Z,20.27
2023-03-27T11:59:48.605Z,19.77
2023-03-27T12:02:42.069Z,18.70
2023-03-27T12:05:26.179Z,18.23
2023-03-27T12:08:13.053Z,20.85
2023-03-27T12:10:43.030Z,19.33
2023-03-27T12:13:22.735Z,18.07
2023-03-27T12:16:10.144Z,21.13
2023-03-27T12:19:05.997Z,19.13
2023-03-27T12:21:55.481Z,18.45
2023-03-27T12:25:01.477Z,16.25
2023-03-27T12:28:22.202Z,15.53
2023-03-27T12:31:23.819Z,14.98
2023-03-27T12:33:46.863Z,15.02
2023-03-27T12:36:17.997Z,15.38
2023-03-27T12:38:43.776Z,13.75
2023-03-27T12:41:13.780Z,12.87
2023-03-27T12:44:06.463Z,11.07
2023-03-27T12:46:39.460Z,11.23
2023-03-27T12:49:06.085Z,13.45
2023-03-27T12:51:47.472Z,10.68
2023-03-27T12:54:19.791Z,10.50
2023-03-27T12:56:42.915Z,9.80
2023-03-27T12:59:21.323Z,7.30
2023-03-27T13:04:17.048Z,7.78
2023-03-27T13:07:01.154Z,5.43
2023-03-27T13:10:08.432Z,5.03
2023-03-27T13:13:05.454Z,3.38
2023-03-27T13:15:47.933Z,5.45
2023-03-27T13:18:50.299Z,4.90
2023-03-27T13:21:35.987Z,3.93
2023-03-27T13:24:24.919Z,3.88
2023-03-27T13:27:20.807Z,3.67
2023-03-27T13:29:52.154Z,2.97
2023-03-27T13:32:38.259Z,4.18
2023-03-27T13:35:21.735Z,5.80
2023-03-27T13:37:50.703Z,3.10
2023-03-27T13:40:40.249Z,4.32
2023-03-27T13:43:17.090Z,4.22
2023-03-27T13:45:52.252Z,3.25
2023-03-27T13:48:54.349Z,3.60
2023-03-27T13:51:44.918Z,3.20
2023-03-27T13:54:33.575Z,5.07
2023-03-27T13:57:14.737Z,4.95
2023-03-27T14:00:13.616Z,6.20
2023-03-27T14:03:02.387Z,7.07
2023-03-27T14:06:02.053Z,5.18
2023-03-27T14:08:35.458Z,7.00
2023-03-27T14:11:55.383Z,6.00
2023-03-27T14:14:52.843Z,7.63
2023-03-27T14:17:41.056Z,5.57
2023-03-27T14:20:32.619Z,7.85
2023-03-27T14:23:06.531Z,7.60
2023-03-27T14:26:01.896Z,5.60
2023-03-27T14:28:34.997Z,8.38
2023-03-27T14:31:06.136Z,5.90
2023-03-27T14:34:12.381Z,6.85
2023-03-27T14:36:42.468Z,7.55
2023-03-27T14:39:17.863Z,5.63
2023-03-27T14:41:53.399Z,4.80
2023-03-27T14:44:18.594Z,4.43
2023-03-27T14:46:45.288Z,4.43
2023-03-27T14:49:14.069Z,5.25
2023-03-27T14:51:42.140Z,5.75
2023-03-27T14:54:19.494Z,6.07
2023-03-27T14:56:47.798Z,5.43
2023-03-27T14:59:35.114Z,4.35
2023-03-27T15:02:13.834Z,4.50
2023-03-27T15:04:40.288Z,4.30
2023-03-27T15:07:31.531Z,4.57
2023-03-27T15:10:31.761Z,4.10
2023-03-27T15:12:55.872Z,5.38
2023-03-27T15:15:22.837Z,4.35
2023-03-27T15:17:46.383Z,4.30
2023-03-27T15:20:11.223Z,5.10
2023-03-27T15:22:43.201Z,3.97
2023-03-27T15:25:21.498Z,4.03
2023-03-27T15:27:53.106Z,7.18
2023-03-27T15:30:43.707Z,5.13
2023-03-27T15:33:12.404Z,3.75
2023-03-27T15:35:45.243Z,2.87
2023-03-27T15:38:13.268Z,3.75
2023-03-27T15:40:40.311Z,7.28
2023-03-27T15:43:13.506Z,2.90
2023-03-27T15:45:59.419Z,5.78
2023-03-27T15:48:40.571Z,3.13
2023-03-27T15:51:19.960Z,3.08
2023-03-27T15:53:47.477Z,3.50
2023-03-27T15:56:13.021Z,4.35
2023-03-27T15:58:59.375Z,5.10
2023-03-27T16:01:37.131Z,4.00
2023-03-27T16:04:05.096Z,4.10
2023-03-27T16:06:33.615Z,4.45
2023-03-27T16:08:56.770Z,2.97
2023-03-27T16:11:33.617Z,4.07
2023-03-27T16:13:59.393Z,5.93
2023-03-27T16:16:27.714Z,4.03
2023-03-27T16:18:51.550Z,3.67
2023-03-27T16:21:14.604Z,5.25
2023-03-27T16:23:37.920Z,5.15
2023-03-27T16:26:01.788Z,4.47
2023-03-27T16:28:29.613Z,4.60
2023-03-27T16:30:52.625Z,6.40
2023-03-27T16:33:22.531Z,4.53
2023-03-27T16:35:45.881Z,4.47
2023-03-27T16:38:08.848Z,5.47
2023-03-27T16:40:32.381Z,5.32
2023-03-27T16:42:55.657Z,5.07
2023-03-27T16:45:18.197Z,4.53
2023-03-27T16:47:41.882Z,4.35
2023-03-27T16:52:32.439Z,6.53
2023-03-27T16:54:55.167Z,5.03
2023-03-27T16:57:17.851Z,5.82
2023-03-27T16:59:41.365Z,5.03
2023-03-27T17:02:04.280Z,4.70
2023-03-27T17:04:28.289Z,5.88
2023-03-27T17:06:51.616Z,6.13
2023-03-27T17:09:15.045Z,3.85
2023-03-27T17:11:38.818Z,8.55
2023-03-27T17:14:02.322Z,3.83
2023-03-27T17:16:25.077Z,5.38
2023-03-27T17:18:47.804Z,6.10
2023-03-27T17:21:11.142Z,5.22
2023-03-27T17:23:34.562Z,3.88
2023-03-27T17:26:03.078Z,3.73
2023-03-27T17:28:26.279Z,3.88
2023-03-27T17:31:01.123Z,3.45
2023-03-27T17:33:28.575Z,4.15
2023-03-27T17:35:52.278Z,5.15
2023-03-27T17:38:15.549Z,3.63
2023-03-27T17:40:40.848Z,5.25
2023-03-27T17:43:03.874Z,4.55
2023-03-27T17:45:26.560Z,3.67
2023-03-27T17:47:50.356Z,4.10
2023-03-27T17:50:14.022Z,4.57
2023-03-27T17:52:36.827Z,5.00
2023-03-27T17:55:00.062Z,4.72
2023-03-27T17:57:23.143Z,4.07
2023-03-27T17:59:47.511Z,4.70
2023-03-27T18:02:18.967Z,4.27
2023-03-27T18:04:41.881Z,4.03
2023-03-27T18:07:04.823Z,4.85
2023-03-27T18:09:29.830Z,4.65
2023-03-27T18:11:52.560Z,5.32
2023-03-27T18:14:15.892Z,4.13
2023-03-27T18:16:38.562Z,3.65
2023-03-27T18:19:01.563Z,4.85
2023-03-27T18:21:24.352Z,5.22
2023-03-27T18:23:47.521Z,5.63
2023-03-27T18:26:10.469Z,8.37
2023-03-27T18:28:34.461Z,4.72
2023-03-27T18:31:08.443Z,6.18
2023-03-27T18:33:32.161Z,4.68
2023-03-27T18:35:56.749Z,3.90
2023-03-27T18:38:19.829Z,4.30
2023-03-27T18:40:43.294Z,5.35
2023-03-27T18:43:06.387Z,5.50
2023-03-27T18:45:29.377Z,5.45
2023-03-27T18:47:52.498Z,3.40
2023-03-27T18:50:16.790Z,5.77
2023-03-27T18:52:41.686Z,4.70
2023-03-27T18:55:09.184Z,5.30
2023-03-27T18:57:32.287Z,4.80
2023-03-27T18:59:55.580Z,5.07
2023-03-27T19:02:18.908Z,4.80
2023-03-27T19:04:41.926Z,5.43
2023-03-27T19:07:06.040Z,4.03
2023-03-27T19:09:40.733Z,4.88
2023-03-27T19:12:05.276Z,4.32
2023-03-27T19:14:46.156Z,4.83
2023-03-27T19:17:27.735Z,4.55
2023-03-27T19:20:10.246Z,4.13
2023-03-27T19:22:46.576Z,4.45
2023-03-27T19:25:35.418Z,4.07
2023-03-27T19:27:58.331Z,5.90
2023-03-27T19:30:21.421Z,4.63
2023-03-27T19:32:44.205Z,5.82
2023-03-27T19:35:07.522Z,3.38
2023-03-27T19:37:31.636Z,4.57
2023-03-27T19:39:59.601Z,5.10
2023-03-27T19:42:23.238Z,3.97
2023-03-27T19:44:46.158Z,4.13
2023-03-27T19:47:09.833Z,4.15
2023-03-27T19:49:33.167Z,4.30
2023-03-27T19:52:17.023Z,4.77
2023-03-27T19:54:40.244Z,3.72
2023-03-27T19:57:03.262Z,4.07
2023-03-27T19:59:30.788Z,5.22
2023-03-27T20:01:54.302Z,4.20
2023-03-27T20:04:17.440Z,3.67
2023-03-27T20:06:40.275Z,3.28
2023-03-27T20:09:05.164Z,3.90
2023-03-27T20:11:28.276Z,3.85
2023-03-27T20:13:56.510Z,3.28
2023-03-27T20:16:20.229Z,3.53
2023-03-27T20:18:44.182Z,4.55
2023-03-27T20:21:09.658Z,3.97
2023-03-27T20:23:32.651Z,5.43
2023-03-27T20:25:56.901Z,4.30
2023-03-27T20:28:20.041Z,3.43
2023-03-27T20:30:43.052Z,3.75
2023-03-27T20:33:06.542Z,4.90
2023-03-27T20:35:33.411Z,4.40
2023-03-27T20:37:57.805Z,3.55
2023-03-27T20:40:22.971Z,3.90
2023-03-27T20:42:54.242Z,3.53
2023-03-27T20:45:19.324Z,3.60
2023-03-27T20:47:43.238Z,5.07
2023-03-27T20:50:08.136Z,5.45
2023-03-27T20:52:31.539Z,3.97
2023-03-27T20:54:54.447Z,4.30
2023-03-27T20:57:17.220Z,4.38
2023-03-27T20:59:40.234Z,5.38
2023-03-27T21:02:03.607Z,3.85
2023-03-27T21:04:28.322Z,3.87
2023-03-27T21:06:51.610Z,4.13
2023-03-27T21:09:14.382Z,2.88
2023-03-27T21:11:37.022Z,3.50
2023-03-27T21:14:00.111Z,3.80
2023-03-27T21:16:22.813Z,3.10
2023-03-27T21:18:45.906Z,4.15
2023-03-27T21:21:08.583Z,4.38
2023-03-27T21:23:34.618Z,3.38
2023-03-27T21:25:57.740Z,3.10
2023-03-27T21:28:20.778Z,3.70
2023-03-27T21:30:46.232Z,3.25
2023-03-27T21:33:11.548Z,3.60
2023-03-27T21:35:41.137Z,3.33
2023-03-27T21:38:04.612Z,3.45
2023-03-27T21:40:28.948Z,4.70
2023-03-27T21:42:52.611Z,4.32
2023-03-27T21:45:15.473Z,3.42
2023-03-27T21:47:47.238Z,4.18
2023-03-27T21:50:11.343Z,3.45
2023-03-27T21:52:37.653Z,4.73
2023-03-27T21:55:03.302Z,4.68
2023-03-27T21:57:26.717Z,4.07
2023-03-27T21:59:50.229Z,3.83
2023-03-27T22:02:12.910Z,2.85
2023-03-27T22:04:35.716Z,4.37
2023-03-27T22:06:58.347Z,4.20
2023-03-27T22:09:21.604Z,3.45
2023-03-27T22:11:44.417Z,4.70
2023-03-27T22:14:07.572Z,4.25
2023-03-27T22:16:30.940Z,2.97
2023-03-27T22:18:53.643Z,3.15
2023-03-27T22:21:23.647Z,3.72
2023-03-27T22:23:46.741Z,4.57
2023-03-27T22:26:09.402Z,4.82
2023-03-27T22:28:31.992Z,3.00
2023-03-27T22:30:54.985Z,4.00
2023-03-27T22:33:17.606Z,3.45
2023-03-27T22:35:40.303Z,4.10
2023-03-27T22:38:03.060Z,2.85
2023-03-27T22:40:27.785Z,4.13
2023-03-27T22:42:50.498Z,3.47
2023-03-27T22:45:13.484Z,4.45
2023-03-27T22:47:36.225Z,2.90
2023-03-27T22:50:00.228Z,3.10
2023-03-27T22:52:23.716Z,5.87
2023-03-27T22:54:46.634Z,2.97
2023-03-27T22:57:09.725Z,3.95
2023-03-27T22:59:32.897Z,4.22
2023-03-27T23:01:56.270Z,3.53
2023-03-27T23:04:19.008Z,4.63
2023-03-27T23:06:41.713Z,3.42
2023-03-27T23:09:04.882Z,3.63
2023-03-27T23:11:27.706Z,4.32
2023-03-27T23:13:50.540Z,4.13
2023-03-27T23:16:13.309Z,4.70
2023-03-27T23:18:36.420Z,3.80
2023-03-27T23:20:59.154Z,4.53
2023-03-27T23:23:21.922Z,5.13
2023-03-27T23:25:44.579Z,5.05
2023-03-27T23:28:07.232Z,3.20
2023-03-27T23:30:30.385Z,3.75
2023-03-27T23:32:53.402Z,3.85
2023-03-27T23:35:17.025Z,5.00
2023-03-27T23:37:39.776Z,4.45
2023-03-27T23:40:05.140Z,4.43
2023-03-27T23:42:28.684Z,3.38
2023-03-27T23:44:51.337Z,3.10
2023-03-27T23:47:13.978Z,3.50
2023-03-27T23:49:37.296Z,4.25
2023-03-27T23:51:59.907Z,4.20
2023-03-27T23:54:22.775Z,3.78
2023-03-27T23:56:45.812Z,3.60
2023-03-27T23:59:08.633Z,4.35
